sensor_id;sensor_type;location;lat;lon;timestamp;P1;durP1;ratioP1;P2;durP2;ratioP2
6019;SDS011;3038;51.122;6.840;2022-08-25T00:01:31;5.40;;;5.00;;
6019;SDS011;3038;51.122;6.840;2022-08-25T00:03:58;5.80;;;5.30;;
6019;SDS011;3038;51.122;6.840;2022-08-25T00:06:25;5.83;;;5.17;;
6019;SDS011;3038;51.122;6.840;2022-08-25T00:08:50;5.73;;;5.33;;
6019;SDS011;3038;51.122;6.840;2022-08-25T00:11:17;5.50;;;5.10;;
6019;SDS011;3038;51.122;6.840;2022-08-25T00:13:48;6.37;;;5.40;;
6019;SDS011;3038;51.122;6.840;2022-08-25T00:16:18;5.73;;;5.27;;
6019;SDS011;3038;51.122;6.840;2022-08-25T00:18:46;6.00;;;5.50;;
6019;SDS011;3038;51.122;6.840;2022-08-25T00:21:15;5.40;;;4.93;;
6019;SDS011;3038;51.122;6.840;2022-08-25T00:23:40;7.03;;;6.43;;
6019;SDS011;3038;51.122;6.840;2022-08-25T00:26:07;6.20;;;5.80;;
6019;SDS011;3038;51.122;6.840;2022-08-25T00:28:33;6.77;;;5.40;;
6019;SDS011;3038;51.122;6.840;2022-08-25T00:31:00;5.83;;;5.43;;
6019;SDS011;3038;51.122;6.840;2022-08-25T00:33:27;4.87;;;4.50;;
6019;SDS011;3038;51.122;6.840;2022-08-25T00:35:55;6.60;;;6.00;;
6019;SDS011;3038;51.122;6.840;2022-08-25T00:38:21;7.90;;;6.63;;
6019;SDS011;3038;51.122;6.840;2022-08-25T00:40:47;5.93;;;5.50;;
6019;SDS011;3038;51.122;6.840;2022-08-25T00:43:33;7.53;;;5.60;;
6019;SDS011;3038;51.122;6.840;2022-08-25T00:45:59;5.87;;;5.27;;
6019;SDS011;3038;51.122;6.840;2022-08-25T00:48:24;6.40;;;5.80;;
6019;SDS011;3038;51.122;6.840;2022-08-25T00:50:50;6.90;;;6.30;;
6019;SDS011;3038;51.122;6.840;2022-08-25T00:53:15;5.93;;;5.37;;
6019;SDS011;3038;51.122;6.840;2022-08-25T00:55:41;7.10;;;6.23;;
6019;SDS011;3038;51.122;6.840;2022-08-25T00:58:08;6.20;;;5.70;;
6019;SDS011;3038;51.122;6.840;2022-08-25T01:00:43;6.40;;;5.90;;
6019;SDS011;3038;51.122;6.840;2022-08-25T01:03:11;5.60;;;5.10;;
6019;SDS011;3038;51.122;6.840;2022-08-25T01:05:37;5.70;;;5.30;;
6019;SDS011;3038;51.122;6.840;2022-08-25T01:08:03;5.90;;;5.40;;
6019;SDS011;3038;51.122;6.840;2022-08-25T01:10:31;6.17;;;5.73;;
6019;SDS011;3038;51.122;6.840;2022-08-25T01:13:00;6.07;;;5.57;;
6019;SDS011;3038;51.122;6.840;2022-08-25T01:15:32;7.00;;;6.40;;
6019;SDS011;3038;51.122;6.840;2022-08-25T01:17:59;6.43;;;5.90;;
6019;SDS011;3038;51.122;6.840;2022-08-25T01:20:25;6.43;;;5.90;;
6019;SDS011;3038;51.122;6.840;2022-08-25T01:22:53;6.50;;;6.00;;
6019;SDS011;3038;51.122;6.840;2022-08-25T01:25:26;6.63;;;5.70;;
6019;SDS011;3038;51.122;6.840;2022-08-25T01:28:01;6.33;;;5.93;;
6019;SDS011;3038;51.122;6.840;2022-08-25T01:30:28;6.83;;;6.13;;
6019;SDS011;3038;51.122;6.840;2022-08-25T01:32:53;6.17;;;5.63;;
6019;SDS011;3038;51.122;6.840;2022-08-25T01:35:19;6.33;;;5.87;;
6019;SDS011;3038;51.122;6.840;2022-08-25T01:37:44;6.40;;;5.70;;
6019;SDS011;3038;51.122;6.840;2022-08-25T01:40:10;6.33;;;5.83;;
6019;SDS011;3038;51.122;6.840;2022-08-25T01:45:12;6.73;;;6.30;;
6019;SDS011;3038;51.122;6.840;2022-08-25T01:47:38;6.97;;;6.43;;
6019;SDS011;3038;51.122;6.840;2022-08-25T01:50:04;6.83;;;6.20;;
6019;SDS011;3038;51.122;6.840;2022-08-25T01:52:37;7.10;;;6.43;;
6019;SDS011;3038;51.122;6.840;2022-08-25T01:55:34;7.20;;;6.60;;
6019;SDS011;3038;51.122;6.840;2022-08-25T01:58:16;6.83;;;6.23;;
6019;SDS011;3038;51.122;6.840;2022-08-25T02:00:46;7.20;;;6.70;;
6019;SDS011;3038;51.122;6.840;2022-08-25T02:03:12;7.80;;;7.20;;
6019;SDS011;3038;51.122;6.840;2022-08-25T02:05:38;7.10;;;6.60;;
6019;SDS011;3038;51.122;6.840;2022-08-25T02:08:03;7.00;;;6.33;;
6019;SDS011;3038;51.122;6.840;2022-08-25T02:10:28;6.70;;;6.20;;
6019;SDS011;3038;51.122;6.840;2022-08-25T02:12:54;7.40;;;6.70;;
6019;SDS011;3038;51.122;6.840;2022-08-25T02:15:19;7.57;;;6.90;;
6019;SDS011;3038;51.122;6.840;2022-08-25T02:17:45;6.67;;;6.17;;
6019;SDS011;3038;51.122;6.840;2022-08-25T02:20:10;8.27;;;6.90;;
6019;SDS011;3038;51.122;6.840;2022-08-25T02:22:35;8.37;;;7.17;;
6019;SDS011;3038;51.122;6.840;2022-08-25T02:25:01;7.30;;;6.80;;
6019;SDS011;3038;51.122;6.840;2022-08-25T02:27:27;7.60;;;6.90;;
6019;SDS011;3038;51.122;6.840;2022-08-25T02:29:53;7.03;;;6.53;;
6019;SDS011;3038;51.122;6.840;2022-08-25T02:32:18;7.13;;;6.50;;
6019;SDS011;3038;51.122;6.840;2022-08-25T02:34:44;9.60;;;6.80;;
6019;SDS011;3038;51.122;6.840;2022-08-25T02:37:09;9.03;;;7.10;;
6019;SDS011;3038;51.122;6.840;2022-08-25T02:39:34;6.70;;;6.20;;
6019;SDS011;3038;51.122;6.840;2022-08-25T02:42:00;7.00;;;6.40;;
6019;SDS011;3038;51.122;6.840;2022-08-25T02:44:26;6.70;;;6.20;;
6019;SDS011;3038;51.122;6.840;2022-08-25T02:46:51;5.90;;;5.40;;
6019;SDS011;3038;51.122;6.840;2022-08-25T02:49:16;6.60;;;6.10;;
6019;SDS011;3038;51.122;6.840;2022-08-25T02:51:42;6.83;;;6.17;;
6019;SDS011;3038;51.122;6.840;2022-08-25T02:54:08;7.40;;;6.30;;
6019;SDS011;3038;51.122;6.840;2022-08-25T02:56:33;7.57;;;6.93;;
6019;SDS011;3038;51.122;6.840;2022-08-25T02:58:59;6.83;;;5.83;;
6019;SDS011;3038;51.122;6.840;2022-08-25T03:01:26;6.50;;;5.90;;
6019;SDS011;3038;51.122;6.840;2022-08-25T03:03:53;8.37;;;5.73;;
6019;SDS011;3038;51.122;6.840;2022-08-25T03:06:19;7.63;;;5.70;;
6019;SDS011;3038;51.122;6.840;2022-08-25T03:08:47;6.17;;;5.67;;
6019;SDS011;3038;51.122;6.840;2022-08-25T03:11:13;6.20;;;5.47;;
6019;SDS011;3038;51.122;6.840;2022-08-25T03:13:39;6.20;;;5.70;;
6019;SDS011;3038;51.122;6.840;2022-08-25T03:16:05;7.90;;;6.23;;
6019;SDS011;3038;51.122;6.840;2022-08-25T03:18:32;6.13;;;5.53;;
6019;SDS011;3038;51.122;6.840;2022-08-25T03:20:58;6.40;;;5.90;;
6019;SDS011;3038;51.122;6.840;2022-08-25T03:23:24;8.00;;;5.73;;
6019;SDS011;3038;51.122;6.840;2022-08-25T03:25:49;7.33;;;5.97;;
6019;SDS011;3038;51.122;6.840;2022-08-25T03:28:36;5.83;;;5.33;;
6019;SDS011;3038;51.122;6.840;2022-08-25T03:31:01;7.00;;;6.33;;
6019;SDS011;3038;51.122;6.840;2022-08-25T03:33:27;6.50;;;5.90;;
6019;SDS011;3038;51.122;6.840;2022-08-25T03:35:54;6.33;;;5.83;;
6019;SDS011;3038;51.122;6.840;2022-08-25T03:38:20;6.37;;;5.97;;
6019;SDS011;3038;51.122;6.840;2022-08-25T03:40:47;8.40;;;6.37;;
6019;SDS011;3038;51.122;6.840;2022-08-25T03:43:14;6.97;;;6.30;;
6019;SDS011;3038;51.122;6.840;2022-08-25T03:45:40;8.77;;;6.40;;
6019;SDS011;3038;51.122;6.840;2022-08-25T03:48:07;8.50;;;6.13;;
6019;SDS011;3038;51.122;6.840;2022-08-25T03:50:32;7.07;;;6.47;;
6019;SDS011;3038;51.122;6.840;2022-08-25T03:52:58;6.60;;;6.10;;
6019;SDS011;3038;51.122;6.840;2022-08-25T03:55:24;6.80;;;6.20;;
6019;SDS011;3038;51.122;6.840;2022-08-25T03:57:50;8.00;;;6.33;;
6019;SDS011;3038;51.122;6.840;2022-08-25T04:00:17;7.83;;;7.20;;
6019;SDS011;3038;51.122;6.840;2022-08-25T04:02:44;7.37;;;6.70;;
6019;SDS011;3038;51.122;6.840;2022-08-25T04:05:10;7.10;;;6.50;;
6019;SDS011;3038;51.122;6.840;2022-08-25T04:07:36;6.93;;;6.33;;
6019;SDS011;3038;51.122;6.840;2022-08-25T04:10:03;7.40;;;6.80;;
6019;SDS011;3038;51.122;6.840;2022-08-25T04:12:33;7.23;;;6.53;;
6019;SDS011;3038;51.122;6.840;2022-08-25T04:14:59;7.87;;;6.80;;
6019;SDS011;3038;51.122;6.840;2022-08-25T04:17:25;6.40;;;5.80;;
6019;SDS011;3038;51.122;6.840;2022-08-25T04:19:50;9.33;;;6.70;;
6019;SDS011;3038;51.122;6.840;2022-08-25T04:22:16;6.33;;;5.83;;
6019;SDS011;3038;51.122;6.840;2022-08-25T04:24:41;6.63;;;5.83;;
6019;SDS011;3038;51.122;6.840;2022-08-25T04:27:07;7.40;;;6.70;;
6019;SDS011;3038;51.122;6.840;2022-08-25T04:29:33;6.67;;;5.97;;
6019;SDS011;3038;51.122;6.840;2022-08-25T04:31:58;6.63;;;6.13;;
6019;SDS011;3038;51.122;6.840;2022-08-25T04:34:25;6.73;;;6.13;;
6019;SDS011;3038;51.122;6.840;2022-08-25T04:36:51;7.00;;;6.10;;
6019;SDS011;3038;51.122;6.840;2022-08-25T04:39:17;7.20;;;6.60;;
6019;SDS011;3038;51.122;6.840;2022-08-25T04:41:45;7.97;;;7.13;;
6019;SDS011;3038;51.122;6.840;2022-08-25T04:44:11;6.53;;;5.93;;
6019;SDS011;3038;51.122;6.840;2022-08-25T04:46:36;6.63;;;6.03;;
6019;SDS011;3038;51.122;6.840;2022-08-25T04:49:02;6.53;;;5.97;;
6019;SDS011;3038;51.122;6.840;2022-08-25T04:51:33;7.90;;;6.50;;
6019;SDS011;3038;51.122;6.840;2022-08-25T04:54:02;6.50;;;6.00;;
6019;SDS011;3038;51.122;6.840;2022-08-25T04:56:29;6.50;;;6.00;;
6019;SDS011;3038;51.122;6.840;2022-08-25T04:58:56;6.83;;;6.23;;
6019;SDS011;3038;51.122;6.840;2022-08-25T05:01:31;7.07;;;6.47;;
6019;SDS011;3038;51.122;6.840;2022-08-25T05:03:57;7.93;;;6.30;;
6019;SDS011;3038;51.122;6.840;2022-08-25T05:06:25;10.03;;;6.20;;
6019;SDS011;3038;51.122;6.840;2022-08-25T05:08:51;7.07;;;6.37;;
6019;SDS011;3038;51.122;6.840;2022-08-25T05:11:17;11.00;;;6.50;;
6019;SDS011;3038;51.122;6.840;2022-08-25T05:13:44;7.30;;;6.70;;
6019;SDS011;3038;51.122;6.840;2022-08-25T05:16:10;7.33;;;6.73;;
6019;SDS011;3038;51.122;6.840;2022-08-25T05:18:36;6.43;;;5.83;;
6019;SDS011;3038;51.122;6.840;2022-08-25T05:21:07;6.40;;;5.80;;
6019;SDS011;3038;51.122;6.840;2022-08-25T05:23:35;7.40;;;5.90;;
6019;SDS011;3038;51.122;6.840;2022-08-25T05:26:05;8.00;;;7.20;;
6019;SDS011;3038;51.122;6.840;2022-08-25T05:28:34;7.43;;;6.77;;
6019;SDS011;3038;51.122;6.840;2022-08-25T05:31:01;7.17;;;6.47;;
6019;SDS011;3038;51.122;6.840;2022-08-25T05:33:28;7.60;;;6.33;;
6019;SDS011;3038;51.122;6.840;2022-08-25T05:35:55;7.40;;;6.83;;
6019;SDS011;3038;51.122;6.840;2022-08-25T05:38:21;6.97;;;6.33;;
6019;SDS011;3038;51.122;6.840;2022-08-25T05:40:47;9.03;;;7.03;;
6019;SDS011;3038;51.122;6.840;2022-08-25T05:43:15;8.37;;;6.83;;
6019;SDS011;3038;51.122;6.840;2022-08-25T05:45:41;7.50;;;6.80;;
6019;SDS011;3038;51.122;6.840;2022-08-25T05:48:06;6.67;;;6.13;;
6019;SDS011;3038;51.122;6.840;2022-08-25T05:50:32;7.23;;;6.33;;
6019;SDS011;3038;51.122;6.840;2022-08-25T05:52:57;8.80;;;8.00;;
6019;SDS011;3038;51.122;6.840;2022-08-25T05:55:23;8.50;;;7.63;;
6019;SDS011;3038;51.122;6.840;2022-08-25T05:57:48;8.30;;;7.50;;
6019;SDS011;3038;51.122;6.840;2022-08-25T06:00:14;8.47;;;6.90;;
6019;SDS011;3038;51.122;6.840;2022-08-25T06:02:39;7.80;;;7.07;;
6019;SDS011;3038;51.122;6.840;2022-08-25T06:05:27;10.20;;;7.17;;
6019;SDS011;3038;51.122;6.840;2022-08-25T06:07:51;7.33;;;6.73;;
6019;SDS011;3038;51.122;6.840;2022-08-25T06:10:17;8.17;;;7.37;;
6019;SDS011;3038;51.122;6.840;2022-08-25T06:12:44;8.93;;;7.47;;
6019;SDS011;3038;51.122;6.840;2022-08-25T06:15:11;9.03;;;8.03;;
6019;SDS011;3038;51.122;6.840;2022-08-25T06:17:38;7.30;;;6.70;;
6019;SDS011;3038;51.122;6.840;2022-08-25T06:20:11;7.97;;;7.10;;
6019;SDS011;3038;51.122;6.840;2022-08-25T06:22:38;7.27;;;6.60;;
6019;SDS011;3038;51.122;6.840;2022-08-25T06:25:05;8.60;;;7.43;;
6019;SDS011;3038;51.122;6.840;2022-08-25T06:27:32;8.27;;;6.77;;
6019;SDS011;3038;51.122;6.840;2022-08-25T06:29:58;8.07;;;7.10;;
6019;SDS011;3038;51.122;6.840;2022-08-25T06:32:23;7.83;;;7.13;;
6019;SDS011;3038;51.122;6.840;2022-08-25T06:34:49;7.80;;;7.10;;
6019;SDS011;3038;51.122;6.840;2022-08-25T06:37:14;10.20;;;9.10;;
6019;SDS011;3038;51.122;6.840;2022-08-25T06:39:40;7.87;;;7.17;;
6019;SDS011;3038;51.122;6.840;2022-08-25T06:42:06;8.73;;;7.17;;
6019;SDS011;3038;51.122;6.840;2022-08-25T06:44:31;7.77;;;7.07;;
6019;SDS011;3038;51.122;6.840;2022-08-25T06:46:57;9.50;;;7.67;;
6019;SDS011;3038;51.122;6.840;2022-08-25T06:49:22;8.23;;;6.93;;
6019;SDS011;3038;51.122;6.840;2022-08-25T06:51:51;7.23;;;6.53;;
6019;SDS011;3038;51.122;6.840;2022-08-25T06:54:17;8.10;;;7.40;;
6019;SDS011;3038;51.122;6.840;2022-08-25T06:56:43;8.37;;;7.67;;
6019;SDS011;3038;51.122;6.840;2022-08-25T06:59:08;10.23;;;7.93;;
6019;SDS011;3038;51.122;6.840;2022-08-25T07:01:35;7.70;;;7.00;;
6019;SDS011;3038;51.122;6.840;2022-08-25T07:04:01;7.20;;;6.63;;
6019;SDS011;3038;51.122;6.840;2022-08-25T07:06:29;7.87;;;7.17;;
6019;SDS011;3038;51.122;6.840;2022-08-25T07:08:55;7.80;;;7.00;;
6019;SDS011;3038;51.122;6.840;2022-08-25T07:11:21;8.40;;;7.60;;
6019;SDS011;3038;51.122;6.840;2022-08-25T07:13:47;9.20;;;7.17;;
6019;SDS011;3038;51.122;6.840;2022-08-25T07:16:14;9.37;;;7.43;;
6019;SDS011;3038;51.122;6.840;2022-08-25T07:18:42;9.50;;;7.93;;
6019;SDS011;3038;51.122;6.840;2022-08-25T07:21:08;7.67;;;6.87;;
6019;SDS011;3038;51.122;6.840;2022-08-25T07:23:34;8.70;;;7.40;;
6019;SDS011;3038;51.122;6.840;2022-08-25T07:26:10;7.50;;;6.80;;
6019;SDS011;3038;51.122;6.840;2022-08-25T07:28:38;7.57;;;6.93;;
6019;SDS011;3038;51.122;6.840;2022-08-25T07:31:04;9.13;;;7.30;;
6019;SDS011;3038;51.122;6.840;2022-08-25T07:33:30;8.10;;;7.40;;
6019;SDS011;3038;51.122;6.840;2022-08-25T07:35:56;8.53;;;7.83;;
6019;SDS011;3038;51.122;6.840;2022-08-25T07:38:21;7.70;;;7.00;;
6019;SDS011;3038;51.122;6.840;2022-08-25T07:40:47;7.77;;;6.67;;
6019;SDS011;3038;51.122;6.840;2022-08-25T07:43:18;8.00;;;7.37;;
6019;SDS011;3038;51.122;6.840;2022-08-25T07:45:45;7.90;;;7.30;;
6019;SDS011;3038;51.122;6.840;2022-08-25T07:48:10;8.23;;;7.40;;
6019;SDS011;3038;51.122;6.840;2022-08-25T07:50:37;7.40;;;6.90;;
6019;SDS011;3038;51.122;6.840;2022-08-25T07:53:06;8.00;;;7.40;;
6019;SDS011;3038;51.122;6.840;2022-08-25T07:55:32;7.53;;;6.73;;
6019;SDS011;3038;51.122;6.840;2022-08-25T07:58:00;8.63;;;7.40;;
6019;SDS011;3038;51.122;6.840;2022-08-25T08:00:28;7.27;;;6.67;;
6019;SDS011;3038;51.122;6.840;2022-08-25T08:02:57;11.43;;;7.83;;
6019;SDS011;3038;51.122;6.840;2022-08-25T08:05:24;7.90;;;7.20;;
6019;SDS011;3038;51.122;6.840;2022-08-25T08:07:51;7.80;;;7.03;;
6019;SDS011;3038;51.122;6.840;2022-08-25T08:10:17;7.57;;;6.87;;
6019;SDS011;3038;51.122;6.840;2022-08-25T08:12:43;8.07;;;7.47;;
6019;SDS011;3038;51.122;6.840;2022-08-25T08:15:09;7.77;;;7.07;;
6019;SDS011;3038;51.122;6.840;2022-08-25T08:17:35;8.87;;;8.00;;
6019;SDS011;3038;51.122;6.840;2022-08-25T08:20:02;8.40;;;7.60;;
6019;SDS011;3038;51.122;6.840;2022-08-25T08:22:32;7.43;;;6.80;;
6019;SDS011;3038;51.122;6.840;2022-08-25T08:24:58;8.20;;;7.40;;
6019;SDS011;3038;51.122;6.840;2022-08-25T08:27:25;10.03;;;8.83;;
6019;SDS011;3038;51.122;6.840;2022-08-25T08:29:50;8.97;;;7.63;;
6019;SDS011;3038;51.122;6.840;2022-08-25T08:32:17;8.10;;;7.37;;
6019;SDS011;3038;51.122;6.840;2022-08-25T08:34:43;7.97;;;7.40;;
6019;SDS011;3038;51.122;6.840;2022-08-25T08:37:10;8.77;;;7.90;;
6019;SDS011;3038;51.122;6.840;2022-08-25T08:39:36;7.63;;;6.93;;
6019;SDS011;3038;51.122;6.840;2022-08-25T08:42:06;8.93;;;7.00;;
6019;SDS011;3038;51.122;6.840;2022-08-25T08:45:01;8.43;;;7.17;;
6019;SDS011;3038;51.122;6.840;2022-08-25T08:53:28;7.60;;;7.00;;
6019;SDS011;3038;51.122;6.840;2022-08-25T08:56:04;8.13;;;7.43;;
6019;SDS011;3038;51.122;6.840;2022-08-25T08:58:40;7.67;;;6.97;;
6019;SDS011;3038;51.122;6.840;2022-08-25T09:01:11;8.03;;;7.23;;
6019;SDS011;3038;51.122;6.840;2022-08-25T09:03:43;10.07;;;8.20;;
6019;SDS011;3038;51.122;6.840;2022-08-25T09:06:21;7.57;;;6.87;;
6019;SDS011;3038;51.122;6.840;2022-08-25T09:08:50;8.30;;;7.60;;
6019;SDS011;3038;51.122;6.840;2022-08-25T09:14:37;7.73;;;6.90;;
6019;SDS011;3038;51.122;6.840;2022-08-25T09:25:46;8.67;;;6.70;;
6019;SDS011;3038;51.122;6.840;2022-08-25T09:28:31;7.10;;;6.40;;
6019;SDS011;3038;51.122;6.840;2022-08-25T09:31:15;7.17;;;6.53;;
6019;SDS011;3038;51.122;6.840;2022-08-25T09:33:41;7.63;;;6.93;;
6019;SDS011;3038;51.122;6.840;2022-08-25T09:36:07;7.00;;;6.40;;
6019;SDS011;3038;51.122;6.840;2022-08-25T09:38:32;7.43;;;6.73;;
6019;SDS011;3038;51.122;6.840;2022-08-25T09:40:59;6.23;;;5.83;;
6019;SDS011;3038;51.122;6.840;2022-08-25T09:43:30;7.07;;;6.53;;
6019;SDS011;3038;51.122;6.840;2022-08-25T09:45:59;6.53;;;5.90;;
6019;SDS011;3038;51.122;6.840;2022-08-25T09:56:35;6.83;;;5.90;;
6019;SDS011;3038;51.122;6.840;2022-08-25T10:01:53;7.20;;;6.50;;
6019;SDS011;3038;51.122;6.840;2022-08-25T10:04:28;8.60;;;6.53;;
6019;SDS011;3038;51.122;6.840;2022-08-25T10:06:58;7.13;;;5.70;;
6019;SDS011;3038;51.122;6.840;2022-08-25T10:09:30;6.63;;;6.13;;
6019;SDS011;3038;51.122;6.840;2022-08-25T10:11:59;7.00;;;6.40;;
6019;SDS011;3038;51.122;6.840;2022-08-25T10:22:34;7.00;;;6.50;;
6019;SDS011;3038;51.122;6.840;2022-08-25T10:25:00;6.90;;;6.40;;
6019;SDS011;3038;51.122;6.840;2022-08-25T10:35:12;6.73;;;6.13;;
6019;SDS011;3038;51.122;6.840;2022-08-25T10:37:45;6.77;;;6.27;;
6019;SDS011;3038;51.122;6.840;2022-08-25T10:40:26;5.90;;;5.47;;
6019;SDS011;3038;51.122;6.840;2022-08-25T10:46:20;6.50;;;5.87;;
6019;SDS011;3038;51.122;6.840;2022-08-25T10:49:19;6.33;;;5.83;;
6019;SDS011;3038;51.122;6.840;2022-08-25T10:52:15;5.63;;;5.23;;
6019;SDS011;3038;51.122;6.840;2022-08-25T10:54:57;6.50;;;5.90;;
6019;SDS011;3038;51.122;6.840;2022-08-25T10:57:35;7.17;;;6.30;;
6019;SDS011;3038;51.122;6.840;2022-08-25T11:00:23;6.37;;;5.97;;
6019;SDS011;3038;51.122;6.840;2022-08-25T11:05:58;9.05;;;6.38;;
6019;SDS011;3038;51.122;6.840;2022-08-25T11:14:05;5.32;;;5.03;;
6019;SDS011;3038;51.122;6.840;2022-08-25T11:16:38;5.65;;;5.15;;
6019;SDS011;3038;51.122;6.840;2022-08-25T11:19:21;5.55;;;5.18;;
6019;SDS011;3038;51.122;6.840;2022-08-25T11:22:02;7.80;;;5.68;;
6019;SDS011;3038;51.122;6.840;2022-08-25T11:30:24;6.57;;;6.15;;
6019;SDS011;3038;51.122;6.840;2022-08-25T11:32:51;5.95;;;5.60;;
6019;SDS011;3038;51.122;6.840;2022-08-25T11:35:25;5.65;;;5.25;;
6019;SDS011;3038;51.122;6.840;2022-08-25T11:38:13;5.55;;;5.15;;
6019;SDS011;3038;51.122;6.840;2022-08-25T11:41:13;5.70;;;5.30;;
6019;SDS011;3038;51.122;6.840;2022-08-25T11:55:10;5.70;;;5.30;;
6019;SDS011;3038;51.122;6.840;2022-08-25T11:57:39;5.68;;;5.38;;
6019;SDS011;3038;51.122;6.840;2022-08-25T12:00:08;5.50;;;5.10;;
6019;SDS011;3038;51.122;6.840;2022-08-25T12:02:52;5.43;;;4.93;;
6019;SDS011;3038;51.122;6.840;2022-08-25T12:16:05;5.88;;;5.47;;
6019;SDS011;3038;51.122;6.840;2022-08-25T12:27:21;6.63;;;6.03;;
6019;SDS011;3038;51.122;6.840;2022-08-25T12:29:40;6.43;;;6.03;;
6019;SDS011;3038;51.122;6.840;2022-08-25T12:32:16;6.28;;;5.88;;
6019;SDS011;3038;51.122;6.840;2022-08-25T12:37:18;6.22;;;5.80;;
6019;SDS011;3038;51.122;6.840;2022-08-25T12:39:53;6.38;;;5.95;;
6019;SDS011;3038;51.122;6.840;2022-08-25T12:47:48;6.50;;;6.00;;
6019;SDS011;3038;51.122;6.840;2022-08-25T12:53:17;6.78;;;6.00;;
6019;SDS011;3038;51.122;6.840;2022-08-25T12:55:55;6.03;;;5.53;;
6019;SDS011;3038;51.122;6.840;2022-08-25T12:58:27;6.43;;;5.93;;
6019;SDS011;3038;51.122;6.840;2022-08-25T13:01:11;6.50;;;6.00;;
6019;SDS011;3038;51.122;6.840;2022-08-25T13:06:37;6.13;;;5.82;;
6019;SDS011;3038;51.122;6.840;2022-08-25T13:11:43;6.80;;;6.03;;
6019;SDS011;3038;51.122;6.840;2022-08-25T13:14:17;7.07;;;6.43;;
6019;SDS011;3038;51.122;6.840;2022-08-25T13:16:55;6.10;;;5.55;;
6019;SDS011;3038;51.122;6.840;2022-08-25T13:19:23;6.10;;;5.70;;
6019;SDS011;3038;51.122;6.840;2022-08-25T13:21:50;6.50;;;6.10;;
6019;SDS011;3038;51.122;6.840;2022-08-25T13:24:29;7.25;;;6.65;;
6019;SDS011;3038;51.122;6.840;2022-08-25T13:27:00;5.97;;;5.55;;
6019;SDS011;3038;51.122;6.840;2022-08-25T13:29:29;6.40;;;5.90;;
6019;SDS011;3038;51.122;6.840;2022-08-25T13:32:02;6.30;;;5.90;;
6019;SDS011;3038;51.122;6.840;2022-08-25T13:34:31;6.35;;;6.00;;
6019;SDS011;3038;51.122;6.840;2022-08-25T13:43:14;6.50;;;5.82;;
6019;SDS011;3038;51.122;6.840;2022-08-25T13:45:45;6.30;;;5.88;;
6019;SDS011;3038;51.122;6.840;2022-08-25T13:48:13;6.55;;;6.10;;
6019;SDS011;3038;51.122;6.840;2022-08-25T13:51:02;5.78;;;5.38;;
6019;SDS011;3038;51.122;6.840;2022-08-25T13:53:32;6.03;;;5.53;;
6019;SDS011;3038;51.122;6.840;2022-08-25T13:55:59;7.32;;;6.68;;
6019;SDS011;3038;51.122;6.840;2022-08-25T13:58:30;6.30;;;5.88;;
6019;SDS011;3038;51.122;6.840;2022-08-25T14:01:14;6.00;;;5.70;;
6019;SDS011;3038;51.122;6.840;2022-08-25T14:03:43;7.38;;;6.88;;
6019;SDS011;3038;51.122;6.840;2022-08-25T14:06:21;7.00;;;6.57;;
6019;SDS011;3038;51.122;6.840;2022-08-25T14:11:28;6.90;;;6.30;;
6019;SDS011;3038;51.122;6.840;2022-08-25T14:14:08;7.17;;;6.67;;
6019;SDS011;3038;51.122;6.840;2022-08-25T14:16:59;8.60;;;7.03;;
6019;SDS011;3038;51.122;6.840;2022-08-25T14:19:24;7.57;;;6.80;;
6019;SDS011;3038;51.122;6.840;2022-08-25T14:21:50;7.33;;;6.03;;
6019;SDS011;3038;51.122;6.840;2022-08-25T14:24:22;8.53;;;6.80;;
6019;SDS011;3038;51.122;6.840;2022-08-25T14:26:48;6.37;;;5.97;;
6019;SDS011;3038;51.122;6.840;2022-08-25T14:29:14;7.50;;;6.43;;
6019;SDS011;3038;51.122;6.840;2022-08-25T14:31:44;6.30;;;5.90;;
6019;SDS011;3038;51.122;6.840;2022-08-25T14:34:24;6.60;;;6.10;;
6019;SDS011;3038;51.122;6.840;2022-08-25T14:36:53;8.43;;;6.27;;
6019;SDS011;3038;51.122;6.840;2022-08-25T14:39:18;7.13;;;6.53;;
6019;SDS011;3038;51.122;6.840;2022-08-25T14:41:44;6.87;;;6.33;;
6019;SDS011;3038;51.122;6.840;2022-08-25T14:44:13;6.93;;;6.43;;
6019;SDS011;3038;51.122;6.840;2022-08-25T14:46:57;6.53;;;6.03;;
6019;SDS011;3038;51.122;6.840;2022-08-25T14:49:27;7.47;;;6.87;;
6019;SDS011;3038;51.122;6.840;2022-08-25T14:51:58;7.73;;;6.70;;
6019;SDS011;3038;51.122;6.840;2022-08-25T14:54:28;8.60;;;7.33;;
6019;SDS011;3038;51.122;6.840;2022-08-25T14:56:54;10.00;;;6.70;;
6019;SDS011;3038;51.122;6.840;2022-08-25T14:59:21;7.53;;;7.03;;
6019;SDS011;3038;51.122;6.840;2022-08-25T15:01:46;6.93;;;6.53;;
6019;SDS011;3038;51.122;6.840;2022-08-25T15:04:13;6.60;;;6.20;;
6019;SDS011;3038;51.122;6.840;2022-08-25T15:06:41;6.00;;;5.60;;
6019;SDS011;3038;51.122;6.840;2022-08-25T15:09:09;6.23;;;5.73;;
6019;SDS011;3038;51.122;6.840;2022-08-25T15:11:41;5.90;;;5.40;;
6019;SDS011;3038;51.122;6.840;2022-08-25T15:14:09;7.20;;;6.60;;
6019;SDS011;3038;51.122;6.840;2022-08-25T15:16:37;7.33;;;6.43;;
6019;SDS011;3038;51.122;6.840;2022-08-25T15:19:09;6.80;;;6.20;;
6019;SDS011;3038;51.122;6.840;2022-08-25T15:21:40;7.33;;;6.83;;
6019;SDS011;3038;51.122;6.840;2022-08-25T15:24:07;6.87;;;6.37;;
6019;SDS011;3038;51.122;6.840;2022-08-25T15:26:34;6.40;;;5.90;;
6019;SDS011;3038;51.122;6.840;2022-08-25T15:29:04;6.70;;;6.07;;
6019;SDS011;3038;51.122;6.840;2022-08-25T15:31:30;6.67;;;6.17;;
6019;SDS011;3038;51.122;6.840;2022-08-25T15:33:55;5.80;;;5.40;;
6019;SDS011;3038;51.122;6.840;2022-08-25T15:36:21;6.10;;;5.60;;
6019;SDS011;3038;51.122;6.840;2022-08-25T15:38:48;5.53;;;5.13;;
6019;SDS011;3038;51.122;6.840;2022-08-25T15:41:14;6.20;;;5.70;;
6019;SDS011;3038;51.122;6.840;2022-08-25T15:43:39;5.57;;;5.17;;
6019;SDS011;3038;51.122;6.840;2022-08-25T15:46:07;6.00;;;5.60;;
6019;SDS011;3038;51.122;6.840;2022-08-25T15:48:37;5.50;;;5.10;;
6019;SDS011;3038;51.122;6.840;2022-08-25T15:51:03;5.70;;;5.23;;
6019;SDS011;3038;51.122;6.840;2022-08-25T15:53:29;6.43;;;5.67;;
6019;SDS011;3038;51.122;6.840;2022-08-25T15:55:55;5.40;;;5.00;;
6019;SDS011;3038;51.122;6.840;2022-08-25T15:58:23;5.60;;;5.20;;
6019;SDS011;3038;51.122;6.840;2022-08-25T16:00:48;5.53;;;5.10;;
6019;SDS011;3038;51.122;6.840;2022-08-25T16:03:14;4.90;;;4.50;;
6019;SDS011;3038;51.122;6.840;2022-08-25T16:05:40;5.10;;;4.70;;
6019;SDS011;3038;51.122;6.840;2022-08-25T16:08:08;5.20;;;4.80;;
6019;SDS011;3038;51.122;6.840;2022-08-25T16:10:34;5.97;;;5.53;;
6019;SDS011;3038;51.122;6.840;2022-08-25T16:13:05;6.20;;;5.73;;
6019;SDS011;3038;51.122;6.840;2022-08-25T16:15:31;6.07;;;5.60;;
6019;SDS011;3038;51.122;6.840;2022-08-25T16:17:57;6.20;;;5.70;;
6019;SDS011;3038;51.122;6.840;2022-08-25T16:20:24;6.30;;;5.70;;
6019;SDS011;3038;51.122;6.840;2022-08-25T16:22:50;6.90;;;6.17;;
6019;SDS011;3038;51.122;6.840;2022-08-25T16:25:15;5.77;;;5.27;;
6019;SDS011;3038;51.122;6.840;2022-08-25T16:27:41;6.30;;;5.80;;
6019;SDS011;3038;51.122;6.840;2022-08-25T16:30:07;6.90;;;6.30;;
6019;SDS011;3038;51.122;6.840;2022-08-25T16:32:34;6.20;;;5.70;;
6019;SDS011;3038;51.122;6.840;2022-08-25T16:34:59;6.90;;;6.40;;
6019;SDS011;3038;51.122;6.840;2022-08-25T16:37:25;6.20;;;5.80;;
6019;SDS011;3038;51.122;6.840;2022-08-25T16:39:51;6.70;;;6.00;;
6019;SDS011;3038;51.122;6.840;2022-08-25T16:42:19;7.93;;;5.50;;
6019;SDS011;3038;51.122;6.840;2022-08-25T16:44:45;6.47;;;5.93;;
6019;SDS011;3038;51.122;6.840;2022-08-25T16:47:10;6.20;;;5.80;;
6019;SDS011;3038;51.122;6.840;2022-08-25T16:49:38;6.07;;;5.67;;
6019;SDS011;3038;51.122;6.840;2022-08-25T16:52:04;6.70;;;5.83;;
6019;SDS011;3038;51.122;6.840;2022-08-25T16:54:49;7.10;;;6.50;;
6019;SDS011;3038;51.122;6.840;2022-08-25T16:57:33;6.87;;;6.30;;
6019;SDS011;3038;51.122;6.840;2022-08-25T16:59:59;6.60;;;6.10;;
6019;SDS011;3038;51.122;6.840;2022-08-25T17:02:24;5.57;;;5.13;;
6019;SDS011;3038;51.122;6.840;2022-08-25T17:04:49;6.27;;;5.63;;
6019;SDS011;3038;51.122;6.840;2022-08-25T17:07:15;7.17;;;6.37;;
6019;SDS011;3038;51.122;6.840;2022-08-25T17:09:40;6.47;;;5.87;;
6019;SDS011;3038;51.122;6.840;2022-08-25T17:12:05;6.63;;;6.03;;
6019;SDS011;3038;51.122;6.840;2022-08-25T17:14:32;6.10;;;5.60;;
6019;SDS011;3038;51.122;6.840;2022-08-25T17:16:58;5.93;;;5.43;;
6019;SDS011;3038;51.122;6.840;2022-08-25T17:19:23;6.87;;;6.37;;
6019;SDS011;3038;51.122;6.840;2022-08-25T17:21:49;5.97;;;5.50;;
6019;SDS011;3038;51.122;6.840;2022-08-25T17:24:16;6.20;;;5.70;;
6019;SDS011;3038;51.122;6.840;2022-08-25T17:26:42;6.30;;;5.70;;